Time;durP1;ratioP1;P1;durP2;ratioP2;P2;SDS_P1;SDS_P2;PMS_P1;PMS_P2;Temp;Humidity;BMP_temperature;BMP_pressure;BME280_temperature;BME280_humidity;BME280_pressure;Samples;Min_cycle;Max_cycle;Signal;HPM_P1;HPM_P2
2022/10/20 00:00:48;;;;;;;12.00;6.45;;;6.20;99.90;;;;;;6239850;23;20012;-85
2022/10/20 00:03:23;;;;;;;12.23;5.90;;;6.20;99.90;;;;;;6189102;23;20012;-86
2022/10/20 00:05:48;;;;;;;13.55;6.40;;;6.10;99.90;;;;;;6215455;23;20339;-85
2022/10/20 00:08:29;;;;;;;11.80;6.13;;;6.20;99.90;;;;;;6189199;23;20016;-86
2022/10/20 00:11:08;;;;;;;13.75;6.03;;;6.20;99.90;;;;;;6239383;23;20077;-86
2022/10/20 00:13:49;;;;;;;14.48;5.63;;;6.00;99.90;;;;;;6240348;23;20019;-86
2022/10/20 00:16:29;;;;;;;13.63;6.18;;;6.00;99.90;;;;;;6213752;23;20099;-86
2022/10/20 00:19:08;;;;;;;11.05;5.80;;;6.00;99.90;;;;;;6215238;23;20018;-86
2022/10/20 00:21:49;;;;;;;11.43;5.35;;;6.00;99.90;;;;;;6239947;23;20012;-85
2022/10/20 00:24:20;;;;;;;11.32;5.82;;;6.10;99.90;;;;;;6215606;23;20016;-86
2022/10/20 00:26:51;;;;;;;10.05;5.32;;;5.90;99.90;;;;;;6240406;23;20016;-86
2022/10/20 00:29:22;;;;;;;9.75;5.32;;;5.80;99.90;;;;;;6239820;23;20515;-85
2022/10/20 00:31:52;;;;;;;11.90;5.90;;;6.10;99.90;;;;;;6215025;23;20482;-85
2022/10/20 00:34:18;;;;;;;9.57;5.40;;;6.00;99.90;;;;;;6239685;23;20039;-85
2022/10/20 00:36:58;;;;;;;10.43;5.78;;;6.00;99.90;;;;;;6240336;23;20024;-85
2022/10/20 00:39:31;;;;;;;11.07;5.38;;;6.00;99.90;;;;;;6214991;23;20020;-85
2022/10/20 00:42:41;;;;;;;13.82;5.75;;;5.90;99.90;;;;;;6240245;23;20115;-86
2022/10/20 00:45:02;;;;;;;13.18;5.65;;;5.90;99.90;;;;;;6235002;23;20020;-85
2022/10/20 00:47:51;;;;;;;9.15;6.30;;;5.80;99.90;;;;;;6214440;23;20095;-85
2022/10/20 00:50:33;;;;;;;8.00;5.35;;;5.80;99.90;;;;;;6212040;23;20020;-85
2022/10/20 00:53:13;;;;;;;;;;;;;;;;;;;;;
2022/10/20 00:55:52;;;;;;;13.60;5.43;;;5.80;99.90;;;;;;6237833;23;20402;-86
2022/10/20 00:58:32;;;;;;;14.05;5.57;;;5.80;99.90;;;;;;6212968;23;20518;-86
2022/10/20 01:00:59;;;;;;;11.93;5.70;;;5.70;99.90;;;;;;6214037;23;20075;-85
2022/10/20 01:03:50;;;;;;;10.15;5.20;;;5.70;99.90;;;;;;6213555;23;20451;-85
2022/10/20 01:06:32;;;;;;;14.98;5.47;;;5.90;99.90;;;;;;6213931;23;20020;-86
2022/10/20 01:09:13;;;;;;;;;;;;;;;;;;;;;
2022/10/20 01:12:08;;;;;;;10.85;5.82;;;5.90;99.90;;;;;;6239313;23;20023;-86
2022/10/20 01:14:42;;;;;;;8.98;5.47;;;5.70;99.90;;;;;;6239123;23;20016;-86
2022/10/20 01:17:43;;;;;;;10.10;5.90;;;5.70;99.90;;;;;;6213033;23;20027;-86
2022/10/20 01:20:29;;;;;;;10.18;5.60;;;5.70;99.90;;;;;;6238509;23;20467;-85
2022/10/20 01:24:02;;;;;;;;;;;;;;;;;;;;;
2022/10/20 01:26:49;;;;;;;11.23;5.88;;;5.70;99.90;;;;;;6238844;23;20046;-85
2022/10/20 01:29:53;;;;;;;12.55;6.22;;;5.60;99.90;;;;;;6213125;23;20019;-85
2022/10/20 01:32:52;;;;;;;7.63;5.97;;;5.60;99.90;;;;;;6093046;23;20101;-85
2022/10/20 01:35:24;;;;;;;17.83;6.18;;;5.60;99.90;;;;;;6238648;23;20023;-85
2022/10/20 01:37:57;;;;;;;13.48;6.18;;;5.60;99.90;;;;;;6239363;23;20073;-85
2022/10/20 01:40:33;;;;;;;12.27;6.82;;;5.80;99.90;;;;;;6213347;23;20093;-86
2022/10/20 01:43:04;;;;;;;11.10;5.90;;;5.60;99.90;;;;;;6214031;23;20462;-86
2022/10/20 01:45:35;;;;;;;11.23;6.13;;;5.60;99.90;;;;;;6238641;23;20356;-86
2022/10/20 01:48:12;;;;;;;12.50;6.20;;;5.80;99.90;;;;;;6239054;23;20027;-86
2022/10/20 01:50:40;;;;;;;12.00;6.38;;;5.70;99.90;;;;;;6211957;23;20028;-86
2022/10/20 01:53:11;;;;;;;9.07;6.68;;;5.60;99.90;;;;;;6213210;23;20023;-86
2022/10/20 01:56:03;;;;;;;12.07;6.30;;;5.50;99.90;;;;;;6237760;23;20058;-86
2022/10/20 01:59:01;;;;;;;13.65;6.35;;;5.70;99.90;;;;;;6212508;23;20459;-86
2022/10/20 02:01:38;;;;;;;9.73;6.28;;;5.60;99.90;;;;;;6211511;23;20024;-87
2022/10/20 02:04:09;;;;;;;10.52;6.13;;;5.60;99.90;;;;;;6213232;23;20012;-85
2022/10/20 02:07:19;;;;;;;14.30;6.72;;;5.60;99.90;;;;;;6213264;23;20439;-86
2022/10/20 02:09:52;;;;;;;12.80;6.38;;;5.40;99.90;;;;;;6238788;23;20016;-86
2022/10/20 02:12:33;;;;;;;10.85;6.70;;;5.40;99.90;;;;;;6212469;23;20024;-85
2022/10/20 02:15:01;;;;;;;17.58;8.05;;;5.40;99.90;;;;;;6212894;23;20073;-86
2022/10/20 02:17:32;;;;;;;14.32;6.85;;;5.40;99.90;;;;;;6211967;23;20023;-86
2022/10/20 02:20:12;;;;;;;13.95;6.85;;;5.40;99.90;;;;;;6238117;23;20047;-86
2022/10/20 02:22:42;;;;;;;11.00;6.25;;;5.40;99.90;;;;;;6213255;23;20499;-86
2022/10/20 02:25:12;;;;;;;13.98;7.32;;;5.40;99.90;;;;;;6238950;23;20024;-86
2022/10/20 02:27:58;;;;;;;;;;;;;;;;;;;;;
2022/10/20 02:30:41;;;;;;;14.15;7.43;;;5.50;99.90;;;;;;6238077;23;20016;-86
2022/10/20 02:33:11;;;;;;;12.95;7.38;;;5.50;99.90;;;;;;6213588;23;20063;-86
2022/10/20 02:35:58;;;;;;;;;;;;;;;;;;;;;
2022/10/20 02:38:32;;;;;;;15.55;7.47;;;5.50;99.90;;;;;;6238443;23;20016;-86
2022/10/20 02:41:00;;;;;;;13.75;7.50;;;5.50;99.90;;;;;;6189440;23;20102;-86
2022/10/20 02:43:44;;;;;;;;;;;;;;;;;;;;;
2022/10/20 02:46:10;;;;;;;13.15;7.50;;;5.50;99.90;;;;;;6194698;23;20016;-86
2022/10/20 02:48:38;;;;;;;14.82;7.75;;;5.50;99.90;;;;;;6215313;23;20470;-87
2022/10/20 02:51:22;;;;;;;17.55;7.60;;;5.70;99.90;;;;;;6189691;23;20355;-86
2022/10/20 02:53:48;;;;;;;14.65;7.72;;;5.50;99.90;;;;;;6239695;23;20028;-86
2022/10/20 02:57:01;;;;;;;14.25;7.90;;;5.30;99.90;;;;;;6240345;23;20066;-86
2022/10/20 02:59:32;;;;;;;16.85;7.68;;;5.40;99.90;;;;;;6193102;23;20020;-85
2022/10/20 03:02:10;;;;;;;15.10;7.75;;;5.40;99.90;;;;;;6214926;23;20444;-86
2022/10/20 03:04:49;;;;;;;16.73;8.68;;;5.50;99.90;;;;;;6190222;23;20023;-86
2022/10/20 03:07:51;;;;;;;11.82;7.90;;;5.50;99.90;;;;;;6214558;23;20103;-86
2022/10/20 03:10:37;;;;;;;13.15;8.63;;;5.40;99.90;;;;;;6213919;23;20020;-85
2022/10/20 03:13:04;;;;;;;16.20;8.27;;;5.50;99.90;;;;;;6194612;23;20320;-86
2022/10/20 03:15:40;;;;;;;18.73;9.10;;;5.50;99.90;;;;;;6215003;23;20335;-86
2022/10/20 03:18:11;;;;;;;18.50;8.95;;;5.50;99.90;;;;;;6215677;23;20020;-87
2022/10/20 03:20:42;;;;;;;18.85;9.38;;;5.60;99.90;;;;;;6215378;23;20024;-86
2022/10/20 03:23:13;;;;;;;16.52;9.25;;;5.70;99.90;;;;;;6215498;23;20557;-86
2022/10/20 03:25:51;;;;;;;;;;;;;;;;;;;;;
2022/10/20 03:28:23;;;;;;;17.42;9.65;;;5.70;99.90;;;;;;6217712;23;20024;-86
2022/10/20 03:31:09;;;;;;;16.10;9.50;;;5.50;99.90;;;;;;6241340;23;20454;-86
2022/10/20 03:33:40;;;;;;;25.02;10.45;;;5.40;99.90;;;;;;6215354;23;20441;-86
2022/10/20 03:36:12;;;;;;;16.42;10.18;;;5.50;99.90;;;;;;6215892;23;20016;-85
2022/10/20 03:38:50;;;;;;;17.42;9.63;;;5.50;99.90;;;;;;6214920;23;20023;-85
2022/10/20 03:41:33;;;;;;;17.48;9.90;;;5.50;99.90;;;;;;6240481;23;20479;-86
2022/10/20 03:44:12;;;;;;;18.50;10.10;;;5.50;99.90;;;;;;6214821;23;20028;-86
2022/10/20 03:46:51;;;;;;;19.38;10.10;;;5.50;99.90;;;;;;6214682;23;20528;-87
2022/10/20 03:49:23;;;;;;;16.48;10.20;;;5.50;99.90;;;;;;6191865;23;20016;-86
2022/10/20 03:51:48;;;;;;;19.13;10.60;;;5.60;99.90;;;;;;6214245;23;20032;-86
2022/10/20 03:54:47;;;;;;;15.95;11.32;;;5.50;99.90;;;;;;6214318;23;20023;-86
2022/10/20 03:57:33;;;;;;;17.80;11.52;;;5.50;99.90;;;;;;6217819;23;20024;-86
2022/10/20 04:00:22;;;;;;;21.00;11.00;;;5.50;99.90;;;;;;6189712;23;20030;-85
2022/10/20 04:03:18;;;;;;;20.55;12.30;;;5.50;99.90;;;;;;6212751;23;20056;-87
2022/10/20 04:06:16;;;;;;;;;;;;;;;;;;;;;
2022/10/20 04:08:52;;;;;;;22.75;12.30;;;5.50;99.90;;;;;;6222965;23;20020;-86
2022/10/20 04:11:30;;;;;;;;;;;;;;;;;;;;;
2022/10/20 04:14:09;;;;;;;17.25;11.55;;;5.50;99.90;;;;;;6240034;23;20067;-87
2022/10/20 04:17:03;;;;;;;24.73;12.77;;;5.60;99.90;;;;;;6214730;23;20090;-86
2022/10/20 04:19:52;;;;;;;19.95;11.55;;;5.50;99.90;;;;;;6215291;23;20030;-88
2022/10/20 04:22:28;;;;;;;20.77;12.50;;;5.60;99.90;;;;;;6238586;23;20054;-86
2022/10/20 04:25:02;;;;;;;23.95;12.55;;;5.60;99.90;;;;;;6215183;23;20451;-86
2022/10/20 04:27:33;;;;;;;18.45;11.70;;;5.50;99.90;;;;;;6214410;23;20082;-86
2022/10/20 04:30:02;;;;;;;18.25;12.15;;;5.40;99.90;;;;;;6238959;23;20344;-86
2022/10/20 04:35:34;;;;;;;19.98;12.75;;;5.50;99.90;;;;;;6240580;23;20336;-93
2022/10/20 04:38:30;;;;;;;;;;;;;;;;;;;;;
2022/10/20 04:41:50;;;;;;;24.55;13.07;;;5.50;99.90;;;;;;6238523;23;19920;-86
2022/10/20 04:44:19;;;;;;;21.98;13.25;;;5.50;99.90;;;;;;6228128;23;20024;-86
2022/10/20 04:46:52;;;;;;;24.08;13.60;;;5.50;99.90;;;;;;6214265;23;20215;-86
2022/10/20 04:52:19;;;;;;;21.27;13.65;;;5.60;99.90;;;;;;6239563;23;20098;-85
2022/10/20 04:54:52;;;;;;;21.27;13.35;;;5.50;99.90;;;;;;6214584;23;20032;-86
2022/10/20 04:57:21;;;;;;;21.60;13.48;;;5.60;99.90;;;;;;6190056;23;20024;-85
2022/10/20 04:59:52;;;;;;;22.35;13.90;;;5.70;99.90;;;;;;6215110;23;20020;-85
2022/10/20 05:02:20;;;;;;;21.33;13.52;;;5.80;99.90;;;;;;6189399;23;20016;-86
2022/10/20 05:04:56;;;;;;;21.77;14.35;;;5.70;99.90;;;;;;6215026;23;20077;-86
2022/10/20 05:07:40;;;;;;;;;;;;;;;;;;;;;
2022/10/20 05:10:26;;;;;;;24.42;15.02;;;5.70;99.90;;;;;;6238891;23;20051;-88
2022/10/20 05:12:54;;;;;;;23.65;14.30;;;5.70;99.90;;;;;;6189858;23;20043;-84
2022/10/20 05:15:43;;;;;;;23.25;14.27;;;5.40;99.90;;;;;;6239427;23;20096;-90
2022/10/20 05:18:09;;;;;;;22.30;14.40;;;5.50;99.90;;;;;;6085917;23;20518;-83
2022/10/20 05:20:40;;;;;;;25.58;15.15;;;5.60;99.90;;;;;;6237027;23;20019;-85
2022/10/20 05:23:08;;;;;;;23.92;14.80;;;5.60;99.90;;;;;;6237454;23;20016;-84
2022/10/20 05:25:38;;;;;;;26.80;15.10;;;5.50;99.90;;;;;;6238765;23;20166;-84
2022/10/20 05:28:07;;;;;;;26.08;14.93;;;5.50;99.90;;;;;;6239221;23;20016;-83
2022/10/20 05:30:37;;;;;;;23.58;15.52;;;5.50;99.90;;;;;;6238577;23;20020;-83
2022/10/20 05:33:03;;;;;;;25.55;16.08;;;5.50;99.90;;;;;;6239285;23;20020;-83
2022/10/20 05:35:29;;;;;;;25.30;15.65;;;5.70;99.90;;;;;;6238383;23;20059;-81
2022/10/20 05:37:55;;;;;;;23.75;15.40;;;5.60;99.90;;;;;;6208864;23;20277;-82
2022/10/20 05:40:22;;;;;;;23.48;15.90;;;5.60;99.90;;;;;;6212419;23;20022;-82
2022/10/20 05:42:48;;;;;;;22.63;14.98;;;5.40;99.90;;;;;;6237667;23;20327;-81
2022/10/20 05:45:13;;;;;;;24.65;16.50;;;5.50;99.90;;;;;;6235204;23;20020;-85
2022/10/20 05:47:39;;;;;;;28.13;16.25;;;5.40;99.90;;;;;;6206977;23;20019;-87
2022/10/20 05:50:05;;;;;;;23.77;16.40;;;5.40;99.90;;;;;;6238404;23;20103;-82
2022/10/20 05:52:33;;;;;;;29.48;15.75;;;5.50;99.90;;;;;;6213909;23;20039;-82
2022/10/20 05:54:59;;;;;;;27.08;16.45;;;5.60;99.90;;;;;;6238972;23;20046;-82
2022/10/20 05:57:24;;;;;;;26.05;16.20;;;5.50;99.90;;;;;;6239652;23;20016;-82
2022/10/20 05:59:50;;;;;;;27.15;16.38;;;5.60;99.90;;;;;;6238717;23;20012;-81
2022/10/20 06:02:16;;;;;;;27.30;16.45;;;5.50;99.90;;;;;;6239665;23;20024;-81
2022/10/20 06:04:41;;;;;;;22.98;16.38;;;5.40;99.90;;;;;;6240329;23;20128;-83
2022/10/20 06:07:09;;;;;;;27.75;16.42;;;5.60;99.90;;;;;;6189474;23;20330;-81
2022/10/20 06:09:36;;;;;;;26.80;16.25;;;5.50;99.90;;;;;;6215157;23;20055;-81
2022/10/20 06:12:02;;;;;;;26.27;16.52;;;5.50;99.90;;;;;;6213784;23;20021;-82
2022/10/20 06:14:28;;;;;;;25.63;16.17;;;5.50;99.90;;;;;;6238354;23;20024;-82
2022/10/20 06:16:55;;;;;;;25.80;16.30;;;5.50;99.90;;;;;;6213318;23;20020;-80
2022/10/20 06:19:21;;;;;;;26.85;16.65;;;5.50;99.90;;;;;;6239510;23;20016;-83
2022/10/20 06:21:47;;;;;;;23.33;16.48;;;5.50;99.90;;;;;;6241169;23;20028;-81
2022/10/20 06:24:13;;;;;;;26.23;16.88;;;5.50;99.90;;;;;;6241394;23;20016;-81
2022/10/20 06:26:39;;;;;;;29.08;17.35;;;5.40;99.90;;;;;;6241798;23;20027;-81
2022/10/20 06:29:08;;;;;;;30.13;18.48;;;5.50;99.90;;;;;;6215398;23;20024;-81
2022/10/20 06:31:39;;;;;;;28.90;17.77;;;5.50;99.90;;;;;;6216629;23;20053;-81
2022/10/20 06:34:08;;;;;;;25.38;16.48;;;5.60;99.90;;;;;;6240969;23;20402;-81
2022/10/20 06:36:36;;;;;;;25.42;16.75;;;5.60;99.90;;;;;;6241823;23;20028;-81
2022/10/20 06:39:03;;;;;;;25.45;17.23;;;5.60;99.90;;;;;;6215583;23;20020;-83
2022/10/20 06:41:30;;;;;;;25.00;17.17;;;5.70;99.90;;;;;;6241708;23;20099;-81
2022/10/20 06:43:59;;;;;;;25.90;17.13;;;5.70;99.90;;;;;;6215758;23;20101;-81
2022/10/20 06:46:34;;;;;;;28.55;16.52;;;5.70;99.90;;;;;;6216958;23;20466;-80
2022/10/20 06:49:02;;;;;;;25.77;16.38;;;5.80;99.90;;;;;;6215978;23;20016;-81
2022/10/20 06:51:28;;;;;;;24.60;15.77;;;5.70;99.90;;;;;;6241672;23;20340;-81
2022/10/20 06:53:54;;;;;;;27.13;16.35;;;6.00;99.90;;;;;;6241087;23;20465;-81
2022/10/20 06:56:26;;;;;;;24.25;16.77;;;5.90;99.90;;;;;;6216320;23;20051;-81
2022/10/20 06:58:53;;;;;;;22.52;15.73;;;6.00;99.90;;;;;;6240778;23;20020;-81
2022/10/20 07:01:22;;;;;;;27.48;17.10;;;6.10;99.90;;;;;;6241572;23;20466;-81
2022/10/20 07:03:49;;;;;;;28.55;17.20;;;6.30;99.90;;;;;;6241005;23;20107;-85
2022/10/20 07:06:18;;;;;;;28.58;16.63;;;6.30;99.90;;;;;;6216091;23;20020;-81
2022/10/20 07:08:44;;;;;;;23.30;16.20;;;6.30;99.90;;;;;;6241688;23;20032;-81
2022/10/20 07:11:13;;;;;;;22.42;15.10;;;6.40;99.90;;;;;;6215401;23;20023;-81
2022/10/20 07:13:38;;;;;;;25.65;16.67;;;6.40;99.90;;;;;;6241380;23;20051;-81
2022/10/20 07:16:06;;;;;;;25.30;17.17;;;6.50;99.90;;;;;;6240351;23;20320;-81
2022/10/20 07:18:33;;;;;;;22.15;14.80;;;6.50;99.90;;;;;;6241175;23;20024;-81
2022/10/20 07:21:02;;;;;;;22.90;15.88;;;6.70;99.90;;;;;;6240667;23;20016;-81
2022/10/20 07:23:29;;;;;;;21.73;15.35;;;6.80;99.90;;;;;;6241476;23;20016;-81
2022/10/20 07:26:05;;;;;;;25.42;15.63;;;6.80;99.90;;;;;;6240464;23;20020;-81
2022/10/20 07:28:34;;;;;;;21.20;14.85;;;6.90;99.90;;;;;;6241253;23;20063;-80
2022/10/20 07:31:09;;;;;;;22.17;15.15;;;7.00;99.90;;;;;;6240148;23;20440;-81
2022/10/20 07:33:35;;;;;;;23.80;14.65;;;7.00;99.90;;;;;;6240929;23;20343;-81
2022/10/20 07:36:00;;;;;;;21.35;13.73;;;7.00;99.90;;;;;;6240844;23;20050;-81
2022/10/20 07:38:26;;;;;;;20.23;14.32;;;7.00;99.90;;;;;;6215421;23;20024;-81
2022/10/20 07:40:52;;;;;;;18.42;13.90;;;7.10;99.90;;;;;;6215079;23;20020;-83
2022/10/20 07:43:18;;;;;;;22.33;14.68;;;7.20;99.90;;;;;;6241332;23;20028;-81
2022/10/20 07:45:44;;;;;;;20.65;14.38;;;7.20;99.90;;;;;;6241264;23;20016;-81
2022/10/20 07:48:10;;;;;;;23.13;14.35;;;7.20;99.90;;;;;;6215083;23;20339;-81
2022/10/20 07:50:39;;;;;;;21.42;14.77;;;7.30;99.90;;;;;;6190701;23;20044;-82
2022/10/20 07:53:05;;;;;;;18.00;12.98;;;7.30;99.90;;;;;;6214726;23;20020;-81
2022/10/20 07:55:33;;;;;;;20.65;13.60;;;7.40;99.90;;;;;;6241186;23;20107;-81
2022/10/20 07:57:59;;;;;;;18.75;13.45;;;7.40;99.90;;;;;;6215621;23;20448;-81
2022/10/20 08:00:25;;;;;;;22.90;14.05;;;7.50;99.90;;;;;;6240677;23;20016;-81
2022/10/20 08:02:50;;;;;;;17.60;13.00;;;7.60;99.90;;;;;;6240828;23;20012;-81
2022/10/20 08:05:16;;;;;;;20.38;13.80;;;7.70;99.90;;;;;;6240151;23;20032;-82
2022/10/20 08:07:42;;;;;;;22.67;13.20;;;7.70;99.90;;;;;;6215949;23;20031;-81
2022/10/20 08:10:08;;;;;;;20.05;13.40;;;7.80;99.90;;;;;;6214676;23;20059;-81
2022/10/20 08:12:34;;;;;;;20.73;13.25;;;7.90;99.90;;;;;;6215935;23;20094;-81
2022/10/20 08:14:59;;;;;;;18.58;12.98;;;7.90;99.90;;;;;;6214483;23;20020;-81
2022/10/20 08:17:26;;;;;;;19.92;12.93;;;8.10;99.90;;;;;;6215354;23;20016;-81
2022/10/20 08:19:51;;;;;;;21.60;12.48;;;8.10;99.90;;;;;;6240456;23;20106;-81
2022/10/20 08:22:18;;;;;;;19.35;12.32;;;8.20;99.90;;;;;;6239945;23;20448;-81
2022/10/20 08:24:45;;;;;;;17.35;12.02;;;8.30;99.90;;;;;;6240552;23;20021;-80
2022/10/20 08:27:11;;;;;;;15.27;11.82;;;8.40;99.90;;;;;;6239614;23;20066;-81
2022/10/20 08:29:37;;;;;;;15.57;12.13;;;8.50;99.90;;;;;;6240655;23;20028;-82
2022/10/20 08:32:04;;;;;;;14.43;11.48;;;8.60;99.90;;;;;;6214494;23;20354;-81
2022/10/20 08:34:30;;;;;;;17.40;12.52;;;8.70;99.90;;;;;;6240692;23;20022;-82
2022/10/20 08:36:55;;;;;;;16.67;12.05;;;8.80;99.90;;;;;;6240366;23;20012;-82
2022/10/20 08:39:21;;;;;;;19.75;12.30;;;8.80;99.90;;;;;;6189728;23;20146;-82
2022/10/20 08:41:49;;;;;;;19.25;11.73;;;8.90;99.90;;;;;;6240368;23;20035;-81
2022/10/20 08:44:31;;;;;;;16.13;12.32;;;9.00;99.90;;;;;;6214577;23;20020;-80
2022/10/20 08:47:00;;;;;;;17.85;11.38;;;9.10;99.90;;;;;;6214982;23;20035;-81
2022/10/20 08:49:29;;;;;;;17.65;11.27;;;9.20;99.90;;;;;;6240338;23;20020;-81
2022/10/20 08:51:57;;;;;;;14.23;10.65;;;9.30;99.90;;;;;;6240074;23;20024;-81
2022/10/20 08:54:23;;;;;;;13.45;10.90;;;9.30;99.90;;;;;;6188963;23;20023;-83
2022/10/20 08:56:52;;;;;;;15.50;10.88;;;9.40;99.90;;;;;;6240054;23;20027;-81
2022/10/20 08:59:33;;;;;;;14.85;11.18;;;9.40;99.90;;;;;;6239358;23;20016;-80
2022/10/20 09:01:59;;;;;;;15.10;11.77;;;9.50;99.90;;;;;;6214672;23;20028;-80
2022/10/20 09:04:41;;;;;;;16.20;11.23;;;9.50;99.90;;;;;;6239513;23;20016;-79
2022/10/20 09:07:24;;;;;;;17.33;11.00;;;9.60;99.90;;;;;;6214405;23;20086;-80
2022/10/20 09:09:51;;;;;;;14.35;10.85;;;9.60;99.90;;;;;;6240081;23;20398;-81
2022/10/20 09:12:18;;;;;;;13.20;10.10;;;9.60;99.90;;;;;;6239401;23;20055;-80
2022/10/20 09:14:47;;;;;;;14.38;10.10;;;9.70;99.90;;;;;;6241873;22;20020;-81
2022/10/20 09:17:17;;;;;;;14.13;10.55;;;9.70;99.90;;;;;;6239482;23;20019;-81
2022/10/20 09:19:48;;;;;;;14.10;10.13;;;9.80;99.90;;;;;;6214370;23;20401;-80
2022/10/20 09:22:26;;;;;;;13.13;10.48;;;10.00;99.90;;;;;;6239466;23;20024;-81
2022/10/20 09:24:55;;;;;;;14.40;10.85;;;10.20;99.90;;;;;;6240329;23;20030;-81
2022/10/20 09:27:35;;;;;;;16.48;10.02;;;10.40;99.90;;;;;;6239135;23;20055;-81
2022/10/20 09:30:36;;;;;;;13.88;9.15;;;10.60;99.90;;;;;;6240086;23;20403;-82
2022/10/20 09:33:30;;;;;;;16.63;9.93;;;10.80;99.90;;;;;;6094169;23;20018;-82
2022/10/20 09:36:12;;;;;;;13.45;9.32;;;11.00;99.90;;;;;;6238140;23;20016;-82
2022/10/20 09:38:43;;;;;;;14.60;9.45;;;11.10;99.90;;;;;;6239552;23;20024;-81
2022/10/20 09:41:27;;;;;;;12.25;9.10;;;11.20;99.90;;;;;;6239495;23;20351;-81
2022/10/20 09:44:00;;;;;;;12.05;9.13;;;11.30;99.90;;;;;;6239607;23;20447;-81
2022/10/20 09:46:33;;;;;;;11.85;9.02;;;11.30;99.90;;;;;;6239112;23;20016;-81
2022/10/20 09:48:58;;;;;;;12.60;9.30;;;11.40;99.90;;;;;;6239872;23;20328;-82
2022/10/20 09:51:29;;;;;;;13.07;9.25;;;11.60;99.90;;;;;;6213878;23;20107;-81
2022/10/20 09:54:07;;;;;;;10.20;8.32;;;11.80;99.90;;;;;;6240155;23;20016;-81
2022/10/20 09:56:37;;;;;;;10.50;8.40;;;12.00;99.90;;;;;;6241741;23;20447;-79
2022/10/20 09:59:08;;;;;;;11.23;8.75;;;12.00;99.90;;;;;;6216933;23;20020;-81
2022/10/20 10:01:50;;;;;;;14.50;9.13;;;12.10;99.90;;;;;;6242071;23;20044;-80
2022/10/20 10:04:39;;;;;;;13.55;7.80;;;12.20;99.90;;;;;;6241340;23;20020;-80
2022/10/20 10:07:25;;;;;;;10.70;8.43;;;12.30;99.90;;;;;;6216748;23;20107;-80
2022/10/20 10:09:56;;;;;;;9.90;8.45;;;12.40;99.90;;;;;;6241695;23;20016;-80
2022/10/20 10:12:23;;;;;;;11.48;7.82;;;12.40;99.90;;;;;;6241729;23;20027;-80
2022/10/20 10:14:57;;;;;;;11.02;7.95;;;12.40;99.90;;;;;;6215885;23;20020;-80
2022/10/20 10:17:36;;;;;;;12.13;8.32;;;12.50;99.90;;;;;;6216121;23;20133;-81
2022/10/20 10:20:25;;;;;;;14.20;8.23;;;12.40;99.90;;;;;;6216614;23;20035;-81
2022/10/20 10:22:51;;;;;;;10.40;7.90;;;12.40;99.90;;;;;;6165070;23;20019;-80
2022/10/20 10:25:26;;;;;;;12.73;7.97;;;12.30;99.90;;;;;;6241281;23;20027;-81
2022/10/20 10:28:05;;;;;;;11.60;8.02;;;12.30;99.90;;;;;;6215922;23;20016;-80
2022/10/20 10:30:34;;;;;;;11.57;7.30;;;12.40;99.90;;;;;;6240965;23;20500;-80
2022/10/20 10:33:00;;;;;;;13.50;7.88;;;12.50;99.90;;;;;;6241308;23;20023;-80
2022/10/20 10:35:41;;;;;;;10.90;7.72;;;12.70;99.90;;;;;;6215561;23;20024;-80
2022/10/20 10:38:09;;;;;;;11.57;7.88;;;12.80;99.90;;;;;;6243355;22;20020;-80
2022/10/20 10:40:45;;;;;;;10.35;7.63;;;12.90;99.90;;;;;;6241274;23;20024;-80
2022/10/20 10:43:16;;;;;;;15.83;7.17;;;13.00;99.90;;;;;;6241115;23;20030;-82
2022/10/20 10:46:03;;;;;;;10.77;7.10;;;13.00;99.90;;;;;;6216329;23;20614;-81
2022/10/20 10:48:58;;;;;;;17.48;7.63;;;13.10;99.90;;;;;;6240711;23;20024;-81
2022/10/20 10:51:50;;;;;;;11.40;7.10;;;13.40;99.90;;;;;;6207996;23;20020;-81
2022/10/20 10:54:34;;;;;;;11.20;7.38;;;13.60;99.90;;;;;;6223500;23;20031;-81
2022/10/20 10:57:39;;;;;;;10.88;7.18;;;13.70;99.90;;;;;;6241607;23;20217;-80
2022/10/20 11:00:51;;;;;;;9.07;7.50;;;13.90;99.90;;;;;;6241255;23;20074;-81
2022/10/20 11:03:37;;;;;;;14.45;7.50;;;14.00;99.90;;;;;;6213479;23;20070;-81
2022/10/20 11:06:13;;;;;;;11.75;6.93;;;14.00;99.90;;;;;;6215973;23;20020;-81
2022/10/20 11:09:07;;;;;;;10.00;6.95;;;14.00;99.90;;;;;;6240708;23;20107;-80
2022/10/20 11:11:52;;;;;;;9.60;7.65;;;14.00;99.90;;;;;;6213530;23;20228;-80
2022/10/20 11:14:45;;;;;;;11.27;7.55;;;14.10;99.90;;;;;;6240782;23;20077;-81
2022/10/20 11:17:41;;;;;;;9.60;7.30;;;14.40;99.90;;;;;;6241104;23;20063;-83
2022/10/20 11:20:15;;;;;;;10.50;7.28;;;14.60;99.90;;;;;;6241277;23;20321;-82
2022/10/20 11:23:03;;;;;;;10.35;8.00;;;14.80;99.90;;;;;;6240839;23;20024;-82
2022/10/20 11:25:36;;;;;;;9.32;7.60;;;14.80;99.90;;;;;;6215294;23;20448;-80
2022/10/20 11:28:02;;;;;;;16.30;8.18;;;14.80;99.90;;;;;;6240927;23;20023;-81
2022/10/20 11:30:29;;;;;;;12.15;7.25;;;14.70;99.90;;;;;;6240396;23;20431;-79
2022/10/20 11:33:13;;;;;;;12.60;7.93;;;14.60;99.90;;;;;;6241216;23;20020;-79
2022/10/20 11:35:55;;;;;;;8.95;7.85;;;14.60;99.90;;;;;;6240211;23;20024;-80
2022/10/20 11:38:42;;;;;;;12.93;7.43;;;14.60;99.90;;;;;;6240306;23;20107;-80
2022/10/20 11:41:31;;;;;;;8.65;6.78;;;14.70;99.90;;;;;;6215989;23;20020;-81
2022/10/20 11:44:17;;;;;;;8.93;7.30;;;14.80;99.90;;;;;;6240406;23;20024;-81
2022/10/20 11:46:45;;;;;;;9.32;7.47;;;14.80;99.90;;;;;;6240156;23;20012;-83
2022/10/20 11:49:11;;;;;;;10.95;7.55;;;14.80;99.90;;;;;;6240878;23;20020;-80
2022/10/20 11:51:46;;;;;;;14.85;7.40;;;14.90;99.90;;;;;;6214721;23;20024;-81
2022/10/20 11:54:53;;;;;;;12.98;7.70;;;14.80;99.90;;;;;;6240100;23;20027;-81
2022/10/20 11:57:31;;;;;;;15.10;8.52;;;14.80;99.90;;;;;;6170281;23;20090;-82
2022/10/20 12:00:31;;;;;;;11.02;8.30;;;14.80;99.90;;;;;;6240755;23;20023;-81
2022/10/20 12:03:09;;;;;;;13.90;8.57;;;14.70;99.90;;;;;;6240869;23;20042;-80
2022/10/20 12:06:04;;;;;;;14.40;8.35;;;14.70;99.90;;;;;;6215002;23;20099;-81
2022/10/20 12:09:01;;;;;;;10.38;8.18;;;14.60;99.90;;;;;;6239947;23;20058;-81
2022/10/20 12:11:37;;;;;;;10.95;8.05;;;14.50;99.90;;;;;;6153741;23;20020;-80
2022/10/20 12:14:23;;;;;;;9.25;7.97;;;14.50;99.90;;;;;;6240851;23;20055;-81
2022/10/20 12:16:52;;;;;;;9.25;7.97;;;14.50;99.90;;;;;;6240751;23;20451;-81
2022/10/20 12:19:29;;;;;;;13.80;8.30;;;14.40;99.90;;;;;;6214792;23;20055;-80
2022/10/20 12:22:17;;;;;;;11.88;8.32;;;14.40;99.90;;;;;;6216091;23;20078;-81
2022/10/20 12:25:03;;;;;;;16.00;8.48;;;14.30;99.90;;;;;;6213957;23;20047;-80
2022/10/20 12:27:29;;;;;;;11.82;8.00;;;14.30;99.90;;;;;;6239629;23;20020;-82
2022/10/20 12:30:40;;;;;;;9.05;8.07;;;14.20;99.90;;;;;;6215299;23;20439;-80
2022/10/20 12:33:38;;;;;;;15.23;10.25;;;14.00;99.90;;;;;;6178572;23;20056;-81
2022/10/20 12:36:16;;;;;;;19.95;13.80;;;13.80;99.90;;;;;;6240514;23;20023;-80
2022/10/20 12:38:53;;;;;;;13.35;9.02;;;13.50;99.90;;;;;;6239652;23;20023;-80
2022/10/20 12:41:29;;;;;;;15.60;10.70;;;13.20;99.90;;;;;;6240381;23;20095;-81
2022/10/20 12:44:04;;;;;;;13.25;10.38;;;13.00;99.90;;;;;;6215017;23;20070;-81
2022/10/20 12:46:32;;;;;;;13.82;10.88;;;12.90;99.90;;;;;;6214787;23;20016;-81
2022/10/20 12:49:05;;;;;;;17.77;11.48;;;12.70;99.90;;;;;;6214870;23;20024;-82
2022/10/20 12:51:46;;;;;;;20.17;12.73;;;12.70;99.90;;;;;;6239111;23;20085;-82
2022/10/20 12:54:34;;;;;;;18.35;11.48;;;12.60;99.90;;;;;;6239928;23;20020;-82
2022/10/20 12:57:40;;;;;;;16.63;11.35;;;12.50;99.90;;;;;;6240052;23;20095;-82
2022/10/20 13:00:26;;;;;;;16.77;11.52;;;12.30;99.90;;;;;;6240237;23;20383;-82
2022/10/20 13:02:53;;;;;;;14.98;11.00;;;12.20;99.90;;;;;;6163753;23;20039;-81
2022/10/20 13:05:25;;;;;;;17.40;12.30;;;12.20;99.90;;;;;;6239960;23;20028;-81
2022/10/20 13:07:51;;;;;;;14.55;11.68;;;12.10;99.90;;;;;;6239440;23;20023;-82
2022/10/20 13:10:28;;;;;;;18.75;12.70;;;12.10;99.90;;;;;;6240080;23;20051;-81
2022/10/20 13:13:09;;;;;;;17.27;12.40;;;12.10;99.90;;;;;;6214188;23;20028;-81
2022/10/20 13:15:35;;;;;;;23.40;12.82;;;12.00;99.90;;;;;;6185903;23;20055;-80
2022/10/20 13:18:12;;;;;;;18.35;12.55;;;12.00;99.90;;;;;;6154297;23;20016;-79
2022/10/20 13:21:00;;;;;;;20.48;14.13;;;11.90;99.90;;;;;;6178593;23;20020;-80
2022/10/20 13:23:53;;;;;;;22.63;13.95;;;11.90;99.90;;;;;;6179361;23;20020;-79
2022/10/20 13:26:34;;;;;;;20.02;15.38;;;11.80;99.90;;;;;;6154905;23;20381;-80
2022/10/20 13:29:00;;;;;;;21.15;14.77;;;11.80;99.90;;;;;;6154636;23;20099;-80
2022/10/20 13:31:45;;;;;;;24.73;15.93;;;11.80;99.90;;;;;;6154975;23;20021;-80
2022/10/20 13:34:18;;;;;;;22.63;15.38;;;11.80;99.90;;;;;;6154752;23;20021;-80
2022/10/20 13:37:06;;;;;;;23.13;15.65;;;11.80;99.90;;;;;;6178798;23;20025;-80
2022/10/20 13:39:50;;;;;;;21.65;15.40;;;11.70;99.90;;;;;;6154638;23;20025;-82
2022/10/20 13:42:49;;;;;;;23.58;15.73;;;11.70;99.90;;;;;;6154722;23;20017;-81